sensor_id;sensor_type;location;lat;lon;timestamp;pressure;altitude;pressure_sealevel;temperature;humidity
38852;BME280;24605;50.092;9.182;2022-09-09T00:01:43;97472.31;;;14.87;94.38
38852;BME280;24605;50.092;9.182;2022-09-09T00:04:15;97476.72;;;15.07;93.72
38852;BME280;24605;50.092;9.182;2022-09-09T00:06:50;97466.34;;;15.06;93.19
38852;BME280;24605;50.092;9.182;2022-09-09T00:09:26;97467.34;;;15.11;92.83
38852;BME280;24605;50.092;9.182;2022-09-09T00:11:57;97469.53;;;15.21;93.00
38852;BME280;24605;50.092;9.182;2022-09-09T00:14:35;97470.97;;;15.24;91.68
38852;BME280;24605;50.092;9.182;2022-09-09T00:17:07;97475.53;;;15.42;90.36
38852;BME280;24605;50.092;9.182;2022-09-09T00:19:39;97466.81;;;15.41;90.03
38852;BME280;24605;50.092;9.182;2022-09-09T00:22:15;97471.28;;;15.34;90.61
38852;BME280;24605;50.092;9.182;2022-09-09T00:24:45;97470.72;;;15.32;91.24
38852;BME280;24605;50.092;9.182;2022-09-09T00:27:19;97437.84;;;15.21;90.75
38852;BME280;24605;50.092;9.182;2022-09-09T00:29:52;97466.34;;;15.51;90.02
38852;BME280;24605;50.092;9.182;2022-09-09T00:32:20;97457.13;;;15.28;90.38
38852;BME280;24605;50.092;9.182;2022-09-09T00:34:49;97456.91;;;15.30;90.10
38852;BME280;24605;50.092;9.182;2022-09-09T00:37:18;97454.16;;;15.43;89.64
38852;BME280;24605;50.092;9.182;2022-09-09T00:39:47;97455.88;;;15.31;90.21
38852;BME280;24605;50.092;9.182;2022-09-09T00:42:18;97452.47;;;15.24;90.97
38852;BME280;24605;50.092;9.182;2022-09-09T00:44:53;97455.34;;;15.15;91.36
38852;BME280;24605;50.092;9.182;2022-09-09T00:47:42;97458.50;;;14.92;93.35
38852;BME280;24605;50.092;9.182;2022-09-09T00:50:17;97460.75;;;14.88;93.73
38852;BME280;24605;50.092;9.182;2022-09-09T00:52:56;97462.06;;;15.11;92.87
38852;BME280;24605;50.092;9.182;2022-09-09T00:55:31;97462.69;;;15.13;92.39
38852;BME280;24605;50.092;9.182;2022-09-09T00:57:59;97443.38;;;15.13;92.09
38852;BME280;24605;50.092;9.182;2022-09-09T01:00:27;97464.16;;;15.02;92.72
38852;BME280;24605;50.092;9.182;2022-09-09T01:03:10;97464.16;;;15.02;93.45
38852;BME280;24605;50.092;9.182;2022-09-09T01:05:48;97465.81;;;14.83;93.31
38852;BME280;24605;50.092;9.182;2022-09-09T01:08:32;97456.88;;;14.91;93.62
38852;BME280;24605;50.092;9.182;2022-09-09T01:11:01;97444.72;;;14.77;93.40
38852;BME280;24605;50.092;9.182;2022-09-09T01:13:30;97454.47;;;14.90;93.13
38852;BME280;24605;50.092;9.182;2022-09-09T01:15:57;97464.59;;;14.86;93.82
38852;BME280;24605;50.092;9.182;2022-09-09T01:18:27;97458.28;;;14.94;93.31
38852;BME280;24605;50.092;9.182;2022-09-09T01:21:00;97467.22;;;14.93;93.45
38852;BME280;24605;50.092;9.182;2022-09-09T01:26:37;97420.81;;;14.71;93.78
38852;BME280;24605;50.092;9.182;2022-09-09T01:29:07;97455.69;;;14.80;93.84
38852;BME280;24605;50.092;9.182;2022-09-09T01:31:37;97451.47;;;14.72;94.32
38852;BME280;24605;50.092;9.182;2022-09-09T01:34:09;97457.50;;;14.80;95.00
38852;BME280;24605;50.092;9.182;2022-09-09T01:36:40;97452.88;;;14.68;95.21
38852;BME280;24605;50.092;9.182;2022-09-09T01:39:09;97451.06;;;14.55;96.00
38852;BME280;24605;50.092;9.182;2022-09-09T01:41:38;97451.50;;;14.39;97.03
38852;BME280;24605;50.092;9.182;2022-09-09T01:44:05;97456.16;;;14.37;97.63
38852;BME280;24605;50.092;9.182;2022-09-09T01:46:32;97451.09;;;14.29;98.13
38852;BME280;24605;50.092;9.182;2022-09-09T01:48:59;97395.59;;;13.83;99.28
38852;BME280;24605;50.092;9.182;2022-09-09T01:51:27;97448.28;;;14.17;99.13
38852;BME280;24605;50.092;9.182;2022-09-09T01:53:54;97447.91;;;14.00;100.00
38852;BME280;24605;50.092;9.182;2022-09-09T01:56:30;97450.75;;;13.91;100.00
38852;BME280;24605;50.092;9.182;2022-09-09T01:59:07;97446.47;;;13.90;100.00
38852;BME280;24605;50.092;9.182;2022-09-09T02:01:46;97457.63;;;13.99;100.00
38852;BME280;24605;50.092;9.182;2022-09-09T02:04:26;97443.81;;;13.77;100.00
38852;BME280;24605;50.092;9.182;2022-09-09T02:06:57;97444.66;;;13.77;100.00
38852;BME280;24605;50.092;9.182;2022-09-09T02:09:24;97447.69;;;13.81;100.00
38852;BME280;24605;50.092;9.182;2022-09-09T02:11:55;97452.53;;;13.84;100.00
38852;BME280;24605;50.092;9.182;2022-09-09T02:14:28;97449.72;;;13.79;100.00
38852;BME280;24605;50.092;9.182;2022-09-09T02:17:00;97435.31;;;13.68;100.00
38852;BME280;24605;50.092;9.182;2022-09-09T02:19:31;97421.94;;;13.56;100.00
38852;BME280;24605;50.092;9.182;2022-09-09T02:22:00;97448.69;;;13.80;100.00
38852;BME280;24605;50.092;9.182;2022-09-09T02:24:28;97447.69;;;13.88;100.00
38852;BME280;24605;50.092;9.182;2022-09-09T02:26:57;97456.81;;;14.05;100.00
38852;BME280;24605;50.092;9.182;2022-09-09T02:29:29;97453.56;;;14.03;100.00
38852;BME280;24605;50.092;9.182;2022-09-09T02:32:00;97459.03;;;14.08;100.00
38852;BME280;24605;50.092;9.182;2022-09-09T02:34:28;97448.09;;;14.18;100.00
38852;BME280;24605;50.092;9.182;2022-09-09T02:36:57;97448.88;;;14.12;100.00
38852;BME280;24605;50.092;9.182;2022-09-09T02:39:25;97449.31;;;14.09;100.00
38852;BME280;24605;50.092;9.182;2022-09-09T02:41:52;97452.75;;;14.09;100.00
38852;BME280;24605;50.092;9.182;2022-09-09T02:44:19;97454.16;;;14.12;100.00
38852;BME280;24605;50.092;9.182;2022-09-09T02:47:02;97460.84;;;14.21;100.00
38852;BME280;24605;50.092;9.182;2022-09-09T02:49:41;97451.31;;;14.27;100.00
38852;BME280;24605;50.092;9.182;2022-09-09T02:52:14;97449.69;;;14.33;100.00
38852;BME280;24605;50.092;9.182;2022-09-09T02:54:41;97452.28;;;14.46;100.00
38852;BME280;24605;50.092;9.182;2022-09-09T02:57:11;97445.19;;;14.53;100.00
38852;BME280;24605;50.092;9.182;2022-09-09T02:59:43;97455.72;;;14.67;100.00
38852;BME280;24605;50.092;9.182;2022-09-09T03:02:11;97452.66;;;14.63;100.00
38852;BME280;24605;50.092;9.182;2022-09-09T03:04:38;97445.38;;;14.72;100.00
38852;BME280;24605;50.092;9.182;2022-09-09T03:07:05;97451.44;;;14.66;100.00
38852;BME280;24605;50.092;9.182;2022-09-09T03:09:31;97459.16;;;14.74;99.55
38852;BME280;24605;50.092;9.182;2022-09-09T03:11:58;97466.66;;;14.84;99.08
38852;BME280;24605;50.092;9.182;2022-09-09T03:14:25;97469.84;;;14.99;97.76
38852;BME280;24605;50.092;9.182;2022-09-09T03:16:52;97465.91;;;15.15;96.52
38852;BME280;24605;50.092;9.182;2022-09-09T03:19:21;97443.91;;;14.90;98.47
38852;BME280;24605;50.092;9.182;2022-09-09T03:21:47;97451.13;;;15.01;97.33
38852;BME280;24605;50.092;9.182;2022-09-09T03:24:15;97452.13;;;15.07;97.12
38852;BME280;24605;50.092;9.182;2022-09-09T03:26:42;97457.41;;;15.13;96.93
38852;BME280;24605;50.092;9.182;2022-09-09T03:29:10;97458.25;;;15.07;96.77
38852;BME280;24605;50.092;9.182;2022-09-09T03:31:38;97460.22;;;15.12;96.93
38852;BME280;24605;50.092;9.182;2022-09-09T03:34:05;97449.31;;;15.01;96.90
38852;BME280;24605;50.092;9.182;2022-09-09T03:36:33;97450.72;;;15.04;97.45
38852;BME280;24605;50.092;9.182;2022-09-09T03:38:59;97451.34;;;15.06;97.14
38852;BME280;24605;50.092;9.182;2022-09-09T03:41:28;97448.94;;;14.98;97.57
38852;BME280;24605;50.092;9.182;2022-09-09T03:43:55;97446.56;;;14.83;98.77
38852;BME280;24605;50.092;9.182;2022-09-09T03:46:24;97449.22;;;14.69;99.63
38852;BME280;24605;50.092;9.182;2022-09-09T03:48:51;97449.63;;;14.60;100.00
38852;BME280;24605;50.092;9.182;2022-09-09T03:51:18;97448.03;;;14.72;100.00
38852;BME280;24605;50.092;9.182;2022-09-09T03:53:46;97446.59;;;14.49;100.00
38852;BME280;24605;50.092;9.182;2022-09-09T03:56:13;97422.72;;;14.24;100.00
38852;BME280;24605;50.092;9.182;2022-09-09T03:58:39;97451.88;;;14.49;100.00
38852;BME280;24605;50.092;9.182;2022-09-09T04:01:08;97445.22;;;14.40;100.00
38852;BME280;24605;50.092;9.182;2022-09-09T04:03:35;97448.88;;;14.19;100.00
38852;BME280;24605;50.092;9.182;2022-09-09T04:06:03;97455.78;;;14.26;100.00
38852;BME280;24605;50.092;9.182;2022-09-09T04:08:30;97443.63;;;14.19;100.00
38852;BME280;24605;50.092;9.182;2022-09-09T04:10:58;97440.59;;;14.08;100.00
38852;BME280;24605;50.092;9.182;2022-09-09T04:13:27;97448.28;;;13.97;100.00
38852;BME280;24605;50.092;9.182;2022-09-09T04:15:55;97438.56;;;13.90;100.00
38852;BME280;24605;50.092;9.182;2022-09-09T04:18:22;97442.00;;;13.98;100.00
38852;BME280;24605;50.092;9.182;2022-09-09T04:20:50;97434.53;;;13.88;100.00
38852;BME280;24605;50.092;9.182;2022-09-09T04:23:18;97439.38;;;13.98;100.00
38852;BME280;24605;50.092;9.182;2022-09-09T04:25:45;97432.50;;;13.83;100.00
38852;BME280;24605;50.092;9.182;2022-09-09T04:28:14;97430.44;;;13.52;100.00
38852;BME280;24605;50.092;9.182;2022-09-09T04:30:41;97426.97;;;13.51;100.00
38852;BME280;24605;50.092;9.182;2022-09-09T04:33:08;97439.16;;;13.79;100.00
38852;BME280;24605;50.092;9.182;2022-09-09T04:35:35;97444.44;;;13.79;100.00
38852;BME280;24605;50.092;9.182;2022-09-09T04:38:02;97448.28;;;13.56;100.00
38852;BME280;24605;50.092;9.182;2022-09-09T04:40:30;97453.34;;;13.65;100.00
38852;BME280;24605;50.092;9.182;2022-09-09T04:42:57;97448.91;;;13.72;100.00
38852;BME280;24605;50.092;9.182;2022-09-09T04:45:25;97446.88;;;13.81;100.00
38852;BME280;24605;50.092;9.182;2022-09-09T04:47:53;97453.97;;;13.80;100.00
38852;BME280;24605;50.092;9.182;2022-09-09T04:50:20;97457.19;;;13.89;100.00
38852;BME280;24605;50.092;9.182;2022-09-09T04:52:47;97451.34;;;13.80;100.00
38852;BME280;24605;50.092;9.182;2022-09-09T04:55:14;97441.41;;;13.82;100.00
38852;BME280;24605;50.092;9.182;2022-09-09T04:57:40;97442.59;;;13.79;100.00
38852;BME280;24605;50.092;9.182;2022-09-09T05:00:08;97444.63;;;13.84;100.00
38852;BME280;24605;50.092;9.182;2022-09-09T05:02:38;97446.28;;;13.78;100.00
38852;BME280;24605;50.092;9.182;2022-09-09T05:05:05;97440.38;;;13.63;100.00
38852;BME280;24605;50.092;9.182;2022-09-09T05:07:32;97446.66;;;13.69;100.00
38852;BME280;24605;50.092;9.182;2022-09-09T05:09:58;97455.56;;;13.68;100.00
38852;BME280;24605;50.092;9.182;2022-09-09T05:12:25;97459.25;;;13.80;100.00
38852;BME280;24605;50.092;9.182;2022-09-09T05:14:51;97460.66;;;13.69;100.00
38852;BME280;24605;50.092;9.182;2022-09-09T05:17:18;97453.16;;;13.86;100.00
38852;BME280;24605;50.092;9.182;2022-09-09T05:19:46;97459.47;;;14.05;100.00
38852;BME280;24605;50.092;9.182;2022-09-09T05:22:12;97462.91;;;14.13;100.00
38852;BME280;24605;50.092;9.182;2022-09-09T05:24:39;97459.66;;;14.17;100.00
38852;BME280;24605;50.092;9.182;2022-09-09T05:27:05;97460.22;;;14.39;100.00
38852;BME280;24605;50.092;9.182;2022-09-09T05:29:32;97471.78;;;14.45;100.00
38852;BME280;24605;50.092;9.182;2022-09-09T05:31:59;97473.78;;;14.56;100.00
38852;BME280;24605;50.092;9.182;2022-09-09T05:34:25;97479.47;;;14.67;100.00
38852;BME280;24605;50.092;9.182;2022-09-09T05:36:53;97479.25;;;14.75;100.00
38852;BME280;24605;50.092;9.182;2022-09-09T05:39:20;97473.34;;;14.73;100.00
38852;BME280;24605;50.092;9.182;2022-09-09T05:41:47;97477.00;;;14.79;100.00
38852;BME280;24605;50.092;9.182;2022-09-09T05:44:13;97479.47;;;14.67;100.00
38852;BME280;24605;50.092;9.182;2022-09-09T05:46:40;97484.97;;;14.72;100.00
38852;BME280;24605;50.092;9.182;2022-09-09T05:49:06;97483.72;;;14.61;100.00
38852;BME280;24605;50.092;9.182;2022-09-09T05:51:33;97489.81;;;14.62;100.00
38852;BME280;24605;50.092;9.182;2022-09-09T05:54:01;97488.22;;;14.67;100.00
38852;BME280;24605;50.092;9.182;2022-09-09T05:56:28;97494.50;;;14.66;100.00
38852;BME280;24605;50.092;9.182;2022-09-09T05:58:55;97501.81;;;14.71;100.00
38852;BME280;24605;50.092;9.182;2022-09-09T06:01:24;97465.28;;;14.54;100.00
38852;BME280;24605;50.092;9.182;2022-09-09T06:03:52;97503.00;;;14.82;100.00
38852;BME280;24605;50.092;9.182;2022-09-09T06:06:20;97501.53;;;14.86;100.00
38852;BME280;24605;50.092;9.182;2022-09-09T06:08:48;97503.59;;;14.77;100.00
38852;BME280;24605;50.092;9.182;2022-09-09T06:11:19;97510.84;;;15.02;100.00
38852;BME280;24605;50.092;9.182;2022-09-09T06:13:45;97510.19;;;15.13;100.00
38852;BME280;24605;50.092;9.182;2022-09-09T06:16:15;97484.97;;;15.17;100.00
38852;BME280;24605;50.092;9.182;2022-09-09T06:18:42;97509.50;;;15.31;100.00
38852;BME280;24605;50.092;9.182;2022-09-09T06:21:13;97518.56;;;15.49;99.64
38852;BME280;24605;50.092;9.182;2022-09-09T06:23:41;97494.84;;;15.42;99.43
38852;BME280;24605;50.092;9.182;2022-09-09T06:26:10;97520.31;;;15.62;98.39
38852;BME280;24605;50.092;9.182;2022-09-09T06:28:39;97520.28;;;15.69;97.74
38852;BME280;24605;50.092;9.182;2022-09-09T06:31:09;97509.25;;;15.40;99.74
38852;BME280;24605;50.092;9.182;2022-09-09T06:33:38;97522.59;;;15.58;99.73
38852;BME280;24605;50.092;9.182;2022-09-09T06:36:07;97523.47;;;15.45;100.00
38852;BME280;24605;50.092;9.182;2022-09-09T06:38:37;97526.59;;;15.29;100.00
38852;BME280;24605;50.092;9.182;2022-09-09T06:41:04;97518.50;;;15.24;100.00
38852;BME280;24605;50.092;9.182;2022-09-09T06:43:32;97529.84;;;15.24;100.00
38852;BME280;24605;50.092;9.182;2022-09-09T06:46:01;97512.91;;;15.39;100.00
38852;BME280;24605;50.092;9.182;2022-09-09T06:48:28;97517.53;;;15.50;100.00
38852;BME280;24605;50.092;9.182;2022-09-09T06:51:03;97516.91;;;15.55;100.00
38852;BME280;24605;50.092;9.182;2022-09-09T06:53:30;97514.38;;;15.73;100.00
38852;BME280;24605;50.092;9.182;2022-09-09T06:55:58;97508.97;;;15.61;99.15
38852;BME280;24605;50.092;9.182;2022-09-09T06:58:26;97523.22;;;15.92;97.89
38852;BME280;24605;50.092;9.182;2022-09-09T07:00:53;97506.44;;;16.05;97.28
38852;BME280;24605;50.092;9.182;2022-09-09T07:03:22;97515.81;;;16.08;97.63
38852;BME280;24605;50.092;9.182;2022-09-09T07:05:54;97514.34;;;16.12;96.56
38852;BME280;24605;50.092;9.182;2022-09-09T07:08:21;97516.28;;;16.23;95.78
38852;BME280;24605;50.092;9.182;2022-09-09T07:10:47;97507.66;;;16.09;96.43
38852;BME280;24605;50.092;9.182;2022-09-09T07:13:14;97519.53;;;16.25;96.32
38852;BME280;24605;50.092;9.182;2022-09-09T07:15:41;97502.78;;;16.32;95.07
38852;BME280;24605;50.092;9.182;2022-09-09T07:18:07;97525.94;;;16.62;93.93
38852;BME280;24605;50.092;9.182;2022-09-09T07:20:36;97528.78;;;16.60;93.72
38852;BME280;24605;50.092;9.182;2022-09-09T07:23:03;97527.38;;;16.57;93.99
38852;BME280;24605;50.092;9.182;2022-09-09T07:25:29;97512.03;;;16.66;93.45
38852;BME280;24605;50.092;9.182;2022-09-09T07:27:56;97519.19;;;16.84;91.96
38852;BME280;24605;50.092;9.182;2022-09-09T07:30:22;97517.13;;;16.86;91.21
38852;BME280;24605;50.092;9.182;2022-09-09T07:32:50;97522.38;;;16.93;91.38
38852;BME280;24605;50.092;9.182;2022-09-09T07:35:17;97530.31;;;17.30;89.41
38852;BME280;24605;50.092;9.182;2022-09-09T07:37:45;97531.72;;;17.63;87.75
38852;BME280;24605;50.092;9.182;2022-09-09T07:40:11;97526.50;;;17.87;86.47
38852;BME280;24605;50.092;9.182;2022-09-09T07:42:37;97536.78;;;17.95;85.68
38852;BME280;24605;50.092;9.182;2022-09-09T07:45:05;97541.34;;;18.07;84.79
38852;BME280;24605;50.092;9.182;2022-09-09T07:47:31;97537.78;;;18.13;83.59
38852;BME280;24605;50.092;9.182;2022-09-09T07:49:58;97535.59;;;18.33;83.76
38852;BME280;24605;50.092;9.182;2022-09-09T07:52:25;97525.97;;;18.51;82.00
38852;BME280;24605;50.092;9.182;2022-09-09T07:54:53;97538.72;;;18.19;82.93
38852;BME280;24605;50.092;9.182;2022-09-09T07:57:21;97540.22;;;18.26;82.17
38852;BME280;24605;50.092;9.182;2022-09-09T07:59:48;97545.50;;;18.03;83.65
38852;BME280;24605;50.092;9.182;2022-09-09T08:02:14;97539.84;;;18.11;82.57
38852;BME280;24605;50.092;9.182;2022-09-09T08:04:41;97549.50;;;17.75;84.20
38852;BME280;24605;50.092;9.182;2022-09-09T08:07:07;97547.41;;;17.65;84.67
38852;BME280;24605;50.092;9.182;2022-09-09T08:09:33;97550.94;;;17.59;84.92
38852;BME280;24605;50.092;9.182;2022-09-09T08:12:02;97557.19;;;17.64;85.65
38852;BME280;24605;50.092;9.182;2022-09-09T08:14:28;97537.44;;;17.48;86.09
38852;BME280;24605;50.092;9.182;2022-09-09T08:16:55;97558.47;;;17.43;85.93
38852;BME280;24605;50.092;9.182;2022-09-09T08:19:22;97556.44;;;17.45;85.04
38852;BME280;24605;50.092;9.182;2022-09-09T08:21:49;97542.41;;;17.26;85.53
38852;BME280;24605;50.092;9.182;2022-09-09T08:24:16;97565.03;;;17.41;84.29
38852;BME280;24605;50.092;9.182;2022-09-09T08:26:46;97574.03;;;17.21;87.00
38852;BME280;24605;50.092;9.182;2022-09-09T08:29:15;97564.91;;;17.54;88.66
38852;BME280;24605;50.092;9.182;2022-09-09T08:31:43;97561.53;;;17.59;89.22
38852;BME280;24605;50.092;9.182;2022-09-09T08:34:11;97572.75;;;17.61;87.50
38852;BME280;24605;50.092;9.182;2022-09-09T08:36:39;97582.47;;;17.67;89.88
38852;BME280;24605;50.092;9.182;2022-09-09T08:39:08;97582.16;;;17.75;92.08
38852;BME280;24605;50.092;9.182;2022-09-09T08:41:50;97580.41;;;17.99;90.88
38852;BME280;24605;50.092;9.182;2022-09-09T08:44:31;97593.19;;;17.72;89.05
38852;BME280;24605;50.092;9.182;2022-09-09T08:47:07;97585.28;;;17.53;91.21
38852;BME280;24605;50.092;9.182;2022-09-09T08:49:48;97586.28;;;17.71;92.01
38852;BME280;24605;50.092;9.182;2022-09-09T08:52:19;97577.03;;;17.92;90.83
38852;BME280;24605;50.092;9.182;2022-09-09T08:54:48;97586.94;;;18.27;88.22
38852;BME280;24605;50.092;9.182;2022-09-09T08:57:21;97586.28;;;18.44;86.79
38852;BME280;24605;50.092;9.182;2022-09-09T08:59:54;97592.91;;;18.11;86.46
38852;BME280;24605;50.092;9.182;2022-09-09T09:02:25;97591.03;;;17.81;87.95
38852;BME280;24605;50.092;9.182;2022-09-09T09:05:00;97586.34;;;18.13;88.00
38852;BME280;24605;50.092;9.182;2022-09-09T09:07:38;97584.84;;;18.06;85.40
38852;BME280;24605;50.092;9.182;2022-09-09T09:10:14;97585.56;;;18.25;85.09
38852;BME280;24605;50.092;9.182;2022-09-09T09:12:45;97576.25;;;18.58;83.85
38852;BME280;24605;50.092;9.182;2022-09-09T09:15:18;97580.31;;;18.72;81.00
38852;BME280;24605;50.092;9.182;2022-09-09T09:17:46;97554.22;;;18.69;79.50
38852;BME280;24605;50.092;9.182;2022-09-09T09:20:14;97574.88;;;18.79;81.17
38852;BME280;24605;50.092;9.182;2022-09-09T09:22:47;97572.47;;;18.42;83.01
38852;BME280;24605;50.092;9.182;2022-09-09T09:25:17;97574.28;;;18.65;81.86
38852;BME280;24605;50.092;9.182;2022-09-09T09:27:50;97554.56;;;18.49;79.87
38852;BME280;24605;50.092;9.182;2022-09-09T09:30:23;97567.16;;;18.89;78.74
38852;BME280;24605;50.092;9.182;2022-09-09T09:32:53;97554.66;;;18.78;77.30
38852;BME280;24605;50.092;9.182;2022-09-09T09:35:20;97569.47;;;18.62;78.50
38852;BME280;24605;50.092;9.182;2022-09-09T09:37:47;97572.81;;;18.57;79.00
38852;BME280;24605;50.092;9.182;2022-09-09T09:40:16;97571.09;;;18.75;78.09
38852;BME280;24605;50.092;9.182;2022-09-09T09:42:51;97570.84;;;18.76;76.91
38852;BME280;24605;50.092;9.182;2022-09-09T09:45:27;97511.06;;;18.62;75.74
38852;BME280;24605;50.092;9.182;2022-09-09T09:48:01;97560.31;;;18.70;77.91
38852;BME280;24605;50.092;9.182;2022-09-09T09:50:29;97552.69;;;18.14;82.09
38852;BME280;24605;50.092;9.182;2022-09-09T09:52:58;97565.00;;;18.08;79.70
38852;BME280;24605;50.092;9.182;2022-09-09T09:55:25;97559.09;;;18.06;80.90
38852;BME280;24605;50.092;9.182;2022-09-09T09:57:52;97570.44;;;18.25;83.59
38852;BME280;24605;50.092;9.182;2022-09-09T10:00:22;97570.88;;;17.80;86.45
38852;BME280;24605;50.092;9.182;2022-09-09T10:02:49;97555.34;;;16.97;75.82
38852;BME280;24605;50.092;9.182;2022-09-09T10:05:19;97550.41;;;16.75;85.13
38852;BME280;24605;50.092;9.182;2022-09-09T10:07:47;97559.56;;;16.80;86.67
38852;BME280;24605;50.092;9.182;2022-09-09T10:10:36;97553.59;;;17.10;91.42
38852;BME280;24605;50.092;9.182;2022-09-09T10:13:10;97564.47;;;17.69;87.88
38852;BME280;24605;50.092;9.182;2022-09-09T10:15:45;97556.09;;;18.03;87.26
38852;BME280;24605;50.092;9.182;2022-09-09T10:18:30;97554.91;;;17.98;85.34
38852;BME280;24605;50.092;9.182;2022-09-09T10:21:05;97556.47;;;17.88;87.99
38852;BME280;24605;50.092;9.182;2022-09-09T10:23:46;97556.34;;;18.13;87.33
38852;BME280;24605;50.092;9.182;2022-09-09T10:26:33;97550.13;;;18.19;87.96
38852;BME280;24605;50.092;9.182;2022-09-09T10:29:14;97553.16;;;18.35;87.44
38852;BME280;24605;50.092;9.182;2022-09-09T10:31:51;97556.63;;;18.71;87.11
38852;BME280;24605;50.092;9.182;2022-09-09T10:34:36;97469.38;;;18.39;86.95
38852;BME280;24605;50.092;9.182;2022-09-09T10:37:21;97553.84;;;19.13;86.61
38852;BME280;24605;50.092;9.182;2022-09-09T10:40:01;97553.38;;;19.28;85.59
38852;BME280;24605;50.092;9.182;2022-09-09T10:42:31;97547.13;;;19.22;86.67
38852;BME280;24605;50.092;9.182;2022-09-09T10:45:08;97534.38;;;19.07;86.73
38852;BME280;24605;50.092;9.182;2022-09-09T10:47:53;97550.66;;;18.99;89.92
38852;BME280;24605;50.092;9.182;2022-09-09T10:50:50;97552.38;;;18.82;89.38
38852;BME280;24605;50.092;9.182;2022-09-09T10:53:24;97548.91;;;18.81;88.98
38852;BME280;24605;50.092;9.182;2022-09-09T10:55:53;97539.31;;;18.80;88.77
38852;BME280;24605;50.092;9.182;2022-09-09T10:58:27;97540.03;;;18.63;88.14
38852;BME280;24605;50.092;9.182;2022-09-09T11:01:01;97542.31;;;18.95;86.26
38852;BME280;24605;50.092;9.182;2022-09-09T11:03:37;97541.91;;;19.39;81.02
38852;BME280;24605;50.092;9.182;2022-09-09T11:06:06;97540.34;;;19.55;79.46
38852;BME280;24605;50.092;9.182;2022-09-09T11:08:38;97521.69;;;19.84;77.95
38852;BME280;24605;50.092;9.182;2022-09-09T11:11:10;97500.91;;;19.81;75.04
38852;BME280;24605;50.092;9.182;2022-09-09T11:13:43;97460.19;;;19.35;72.23
38852;BME280;24605;50.092;9.182;2022-09-09T11:16:19;97502.75;;;19.81;74.01
38852;BME280;24605;50.092;9.182;2022-09-09T11:18:50;97527.25;;;20.29;70.55
38852;BME280;24605;50.092;9.182;2022-09-09T11:21:22;97531.63;;;20.18;69.89
38852;BME280;24605;50.092;9.182;2022-09-09T11:23:52;97524.84;;;20.44;68.24
38852;BME280;24605;50.092;9.182;2022-09-09T11:26:25;97524.66;;;20.51;66.88
38852;BME280;24605;50.092;9.182;2022-09-09T11:29:03;97525.16;;;20.31;63.94
38852;BME280;24605;50.092;9.182;2022-09-09T11:31:44;97526.44;;;20.45;66.21
38852;BME280;24605;50.092;9.182;2022-09-09T11:34:26;97531.13;;;20.21;67.18
38852;BME280;24605;50.092;9.182;2022-09-09T11:37:20;97534.03;;;19.73;69.22
38852;BME280;24605;50.092;9.182;2022-09-09T11:40:06;97542.31;;;19.48;68.31
38852;BME280;24605;50.092;9.182;2022-09-09T11:42:35;97533.44;;;19.02;68.50
38852;BME280;24605;50.092;9.182;2022-09-09T11:45:09;97539.81;;;18.77;70.56
38852;BME280;24605;50.092;9.182;2022-09-09T11:47:38;97551.31;;;18.71;70.19
38852;BME280;24605;50.092;9.182;2022-09-09T11:50:29;97546.25;;;18.45;71.42
38852;BME280;24605;50.092;9.182;2022-09-09T11:53:05;97547.75;;;18.53;73.00
38852;BME280;24605;50.092;9.182;2022-09-09T11:55:33;97550.81;;;18.14;73.75
38852;BME280;24605;50.092;9.182;2022-09-09T11:58:03;97552.50;;;17.97;75.96
38852;BME280;24605;50.092;9.182;2022-09-09T12:00:35;97551.38;;;18.05;79.55
38852;BME280;24605;50.092;9.182;2022-09-09T12:03:03;97549.50;;;17.75;75.44
38852;BME280;24605;50.092;9.182;2022-09-09T12:05:39;97556.38;;;17.15;75.15
38852;BME280;24605;50.092;9.182;2022-09-09T12:08:09;97541.59;;;16.63;75.01
38852;BME280;24605;50.092;9.182;2022-09-09T12:10:39;97549.69;;;16.18;80.93
38852;BME280;24605;50.092;9.182;2022-09-09T12:13:16;97541.44;;;16.07;82.45
38852;BME280;24605;50.092;9.182;2022-09-09T12:15:47;97535.06;;;16.15;79.25
38852;BME280;24605;50.092;9.182;2022-09-09T12:18:15;97528.31;;;16.44;80.78
38852;BME280;24605;50.092;9.182;2022-09-09T12:20:55;97545.91;;;16.57;81.30
38852;BME280;24605;50.092;9.182;2022-09-09T12:23:30;97543.34;;;16.25;84.39
38852;BME280;24605;50.092;9.182;2022-09-09T12:26:21;97546.25;;;16.42;86.86
38852;BME280;24605;50.092;9.182;2022-09-09T12:28:58;97543.22;;;16.64;86.36
38852;BME280;24605;50.092;9.182;2022-09-09T12:31:33;97523.81;;;16.70;88.17
38852;BME280;24605;50.092;9.182;2022-09-09T12:34:10;97531.38;;;17.41;88.76
38852;BME280;24605;50.092;9.182;2022-09-09T12:36:39;97522.66;;;17.41;85.02
38852;BME280;24605;50.092;9.182;2022-09-09T12:39:16;97525.34;;;17.83;85.31
38852;BME280;24605;50.092;9.182;2022-09-09T12:41:50;97526.81;;;17.97;85.06
38852;BME280;24605;50.092;9.182;2022-09-09T12:44:18;97520.03;;;18.25;87.85
38852;BME280;24605;50.092;9.182;2022-09-09T12:46:46;97501.00;;;18.28;84.05
38852;BME280;24605;50.092;9.182;2022-09-09T12:49:26;97507.22;;;18.58;85.65
38852;BME280;24605;50.092;9.182;2022-09-09T12:51:56;97513.34;;;18.94;84.42
38852;BME280;24605;50.092;9.182;2022-09-09T12:54:24;97508.06;;;19.35;82.88
38852;BME280;24605;50.092;9.182;2022-09-09T12:56:50;97512.28;;;19.48;82.41
38852;BME280;24605;50.092;9.182;2022-09-09T12:59:23;97517.59;;;19.48;81.04
38852;BME280;24605;50.092;9.182;2022-09-09T13:01:55;97503.13;;;19.55;79.51
38852;BME280;24605;50.092;9.182;2022-09-09T13:04:22;97507.75;;;20.06;75.37
38852;BME280;24605;50.092;9.182;2022-09-09T13:06:48;97516.13;;;19.69;74.60
38852;BME280;24605;50.092;9.182;2022-09-09T13:09:16;97517.56;;;20.06;73.97
38852;BME280;24605;50.092;9.182;2022-09-09T13:11:46;97515.53;;;19.96;73.68
38852;BME280;24605;50.092;9.182;2022-09-09T13:14:16;97522.44;;;20.26;74.50
38852;BME280;24605;50.092;9.182;2022-09-09T13:16:54;97516.59;;;20.29;73.74
38852;BME280;24605;50.092;9.182;2022-09-09T13:19:22;97502.72;;;19.93;73.87